AEA72QU LEIB-LEMD
Flight info
| Callsign | AEA72QU |
|---|---|
| Flight time | 1h 0m |
| Altitude | 29000 |
| Route | XOSTA M134 NINOT/N0408F310 M134 VLC N733 PRADO |
| Aircraft | B738/M-SDE2E3FGHIRWXY/LB1 |
Departure
| Time | 2026-05-07 16:49 |
|---|---|
| Airport | Ibiza Airport (LEIB) |
Arrival
| Time | 2026-05-07 17:49 |
|---|---|
| Airport | Adolfo Suárez Madrid–Barajas Airport (LEMD) |
| Time | Latitude | Longitude | Altitude | Speed | Heading |
|---|---|---|---|---|---|
| 2026-05-07 16:35 | 38.87592 | 1.36991 | 9 ft | 0 kts | 333° |
| 2026-05-07 16:44 | 38.87596 | 1.36994 | 7 ft | 1 kts | 18° |
| 2026-05-07 16:44 | 38.87593 | 1.37005 | 9 ft | 2 kts | 132° |
| 2026-05-07 16:44 | 38.87565 | 1.37021 | 7 ft | 7 kts | 167° |
| 2026-05-07 16:44 | 38.87509 | 1.36967 | 7 ft | 14 kts | 235° |
| 2026-05-07 16:45 | 38.87456 | 1.36846 | 7 ft | 16 kts | 242° |
| 2026-05-07 16:45 | 38.87370 | 1.36818 | 8 ft | 15 kts | 152° |
| 2026-05-07 16:45 | 38.87279 | 1.36839 | 9 ft | 14 kts | 229° |
| 2026-05-07 16:45 | 38.87230 | 1.36730 | 9 ft | 14 kts | 243° |
| 2026-05-07 16:46 | 38.87183 | 1.36612 | 8 ft | 17 kts | 243° |
| 2026-05-07 16:46 | 38.87119 | 1.36456 | 8 ft | 22 kts | 241° |
| 2026-05-07 16:46 | 38.87045 | 1.36278 | 8 ft | 22 kts | 241° |
| 2026-05-07 16:46 | 38.86973 | 1.36104 | 7 ft | 22 kts | 242° |
| 2026-05-07 16:47 | 38.86903 | 1.35934 | 7 ft | 21 kts | 242° |
| 2026-05-07 16:47 | 38.86836 | 1.35777 | 7 ft | 16 kts | 232° |
| 2026-05-07 16:47 | 38.86766 | 1.35781 | 6 ft | 10 kts | 150° |
| 2026-05-07 16:47 | 38.86733 | 1.35864 | 6 ft | 12 kts | 116° |
| 2026-05-07 16:48 | 38.86730 | 1.35968 | 5 ft | 20 kts | 64° |
| 2026-05-07 16:48 | 38.86911 | 1.36410 | 4 ft | 91 kts | 62° |
| 2026-05-07 16:48 | 38.87301 | 1.37354 | 14 ft | 147 kts | 62° |
| 2026-05-07 16:48 | 38.87793 | 1.38554 | 560 ft | 151 kts | 63° |
| 2026-05-07 16:49 | 38.88200 | 1.39797 | 1272 ft | 150 kts | 73° |
| 2026-05-07 16:49 | 38.88465 | 1.41123 | 1835 ft | 163 kts | 77° |
| 2026-05-07 16:49 | 38.88748 | 1.42675 | 2097 ft | 192 kts | 77° |
| 2026-05-07 16:49 | 38.89060 | 1.44397 | 2522 ft | 204 kts | 77° |
| 2026-05-07 16:50 | 38.89389 | 1.46210 | 3092 ft | 212 kts | 78° |
| 2026-05-07 16:50 | 38.89725 | 1.48056 | 3841 ft | 213 kts | 78° |
| 2026-05-07 16:50 | 38.90065 | 1.49921 | 4531 ft | 217 kts | 78° |
| 2026-05-07 16:50 | 38.90411 | 1.51821 | 5214 ft | 220 kts | 78° |
| 2026-05-07 16:51 | 38.90798 | 1.53733 | 5918 ft | 223 kts | 68° |
| 2026-05-07 16:51 | 38.91760 | 1.55361 | 6355 ft | 243 kts | 44° |
| 2026-05-07 16:51 | 38.93096 | 1.56873 | 6617 ft | 267 kts | 42° |
| 2026-05-07 16:51 | 38.94521 | 1.58480 | 7222 ft | 276 kts | 42° |
| 2026-05-07 16:52 | 38.95971 | 1.60129 | 7995 ft | 280 kts | 43° |
| 2026-05-07 16:52 | 38.97428 | 1.61799 | 8812 ft | 282 kts | 43° |
| 2026-05-07 16:52 | 38.98900 | 1.63492 | 9583 ft | 286 kts | 43° |
| 2026-05-07 16:52 | 39.00519 | 1.65026 | 10255 ft | 297 kts | 24° |
| 2026-05-07 16:53 | 39.02622 | 1.65496 | 10452 ft | 323 kts | 354° |
| 2026-05-07 16:53 | 39.04788 | 1.64558 | 10928 ft | 336 kts | 329° |
| 2026-05-07 16:53 | 39.06581 | 1.62609 | 11668 ft | 341 kts | 308° |
| 2026-05-07 16:53 | 39.07746 | 1.59961 | 12503 ft | 342 kts | 288° |
| 2026-05-07 16:54 | 39.08246 | 1.56974 | 13366 ft | 343 kts | 276° |
| 2026-05-07 16:54 | 39.08467 | 1.53903 | 14152 ft | 347 kts | 272° |
| 2026-05-07 16:54 | 39.08608 | 1.50786 | 14930 ft | 351 kts | 271° |
| 2026-05-07 16:54 | 39.08746 | 1.47632 | 15699 ft | 355 kts | 271° |
| 2026-05-07 16:55 | 39.08901 | 1.44452 | 16480 ft | 358 kts | 271° |
| 2026-05-07 16:55 | 39.09076 | 1.41236 | 17220 ft | 361 kts | 271° |
| 2026-05-07 16:55 | 39.09269 | 1.37993 | 17950 ft | 365 kts | 272° |
| 2026-05-07 16:55 | 39.09472 | 1.34721 | 18662 ft | 368 kts | 271° |
| 2026-05-07 16:56 | 39.09683 | 1.31423 | 19396 ft | 370 kts | 271° |
| 2026-05-07 16:56 | 39.09898 | 1.28118 | 20121 ft | 372 kts | 271° |
| 2026-05-07 16:56 | 39.10333 | 1.21435 | 21488 ft | 376 kts | 271° |
| 2026-05-07 16:57 | 39.10551 | 1.18073 | 22146 ft | 378 kts | 271° |
| 2026-05-07 16:57 | 39.10768 | 1.14690 | 22774 ft | 380 kts | 270° |
| 2026-05-07 16:57 | 39.10986 | 1.11315 | 23562 ft | 376 kts | 270° |
| 2026-05-07 16:57 | 39.11201 | 1.07984 | 24423 ft | 370 kts | 270° |
| 2026-05-07 16:58 | 39.11411 | 1.04700 | 25202 ft | 367 kts | 269° |
| 2026-05-07 16:58 | 39.11617 | 1.01427 | 25835 ft | 367 kts | 269° |
| 2026-05-07 16:58 | 39.11822 | 0.98148 | 26415 ft | 367 kts | 269° |
| 2026-05-07 16:58 | 39.12027 | 0.94877 | 27056 ft | 366 kts | 268° |
| 2026-05-07 16:59 | 39.12230 | 0.91623 | 27689 ft | 364 kts | 268° |
| 2026-05-07 16:59 | 39.12432 | 0.88373 | 28279 ft | 363 kts | 267° |
| 2026-05-07 16:59 | 39.12631 | 0.85141 | 28798 ft | 363 kts | 267° |
| 2026-05-07 16:59 | 39.12831 | 0.81875 | 28866 ft | 365 kts | 267° |
| 2026-05-07 17:00 | 39.13113 | 0.77302 | 28895 ft | 363 kts | 266° |
| 2026-05-07 17:00 | 39.13914 | 0.71866 | 28897 ft | 376 kts | 281° |
| 2026-05-07 17:01 | 39.15797 | 0.65544 | 28907 ft | 378 kts | 283° |
| 2026-05-07 17:01 | 39.17693 | 0.59241 | 28909 ft | 377 kts | 282° |
| 2026-05-07 17:02 | 39.19555 | 0.52912 | 28907 ft | 377 kts | 282° |
| 2026-05-07 17:02 | 39.21403 | 0.46584 | 28916 ft | 377 kts | 282° |
| 2026-05-07 17:03 | 39.23247 | 0.40254 | 28917 ft | 377 kts | 282° |
| 2026-05-07 17:03 | 39.25090 | 0.33913 | 28917 ft | 378 kts | 282° |
| 2026-05-07 17:04 | 39.26931 | 0.27563 | 28921 ft | 378 kts | 282° |
| 2026-05-07 17:04 | 39.28768 | 0.21212 | 28928 ft | 378 kts | 282° |
| 2026-05-07 17:05 | 39.30602 | 0.14857 | 28925 ft | 378 kts | 282° |
| 2026-05-07 17:05 | 39.32432 | 0.08498 | 28927 ft | 378 kts | 281° |
| 2026-05-07 17:06 | 39.34247 | 0.02181 | 28933 ft | 377 kts | 281° |
| 2026-05-07 17:06 | 39.36071 | -0.04183 | 28949 ft | 377 kts | 282° |
| 2026-05-07 17:07 | 39.37878 | -0.10497 | 28931 ft | 372 kts | 285° |
| 2026-05-07 17:07 | 39.39654 | -0.16711 | 28926 ft | 365 kts | 285° |
| 2026-05-07 17:08 | 39.41407 | -0.22867 | 28927 ft | 359 kts | 285° |
| 2026-05-07 17:08 | 39.43109 | -0.28865 | 28936 ft | 358 kts | 285° |
| 2026-05-07 17:09 | 39.44828 | -0.34939 | 28944 ft | 360 kts | 285° |
| 2026-05-07 17:09 | 39.46559 | -0.41059 | 28939 ft | 364 kts | 285° |
| 2026-05-07 17:10 | 39.48307 | -0.47248 | 28941 ft | 368 kts | 286° |
| 2026-05-07 17:10 | 39.50650 | -0.53205 | 28938 ft | 374 kts | 295° |
| 2026-05-07 17:11 | 39.53286 | -0.59021 | 28934 ft | 374 kts | 295° |
| 2026-05-07 17:11 | 39.55897 | -0.64843 | 28938 ft | 373 kts | 295° |
| 2026-05-07 17:12 | 39.58472 | -0.70662 | 28944 ft | 371 kts | 294° |
| 2026-05-07 17:12 | 39.61023 | -0.76467 | 28937 ft | 370 kts | 294° |
| 2026-05-07 17:13 | 39.63565 | -0.82263 | 28944 ft | 369 kts | 294° |
| 2026-05-07 17:13 | 39.66102 | -0.88064 | 28947 ft | 370 kts | 294° |
| 2026-05-07 17:14 | 39.68639 | -0.93872 | 28969 ft | 370 kts | 294° |
| 2026-05-07 17:14 | 39.71174 | -0.99685 | 28963 ft | 371 kts | 294° |
| 2026-05-07 17:15 | 39.73724 | -1.05540 | 28967 ft | 372 kts | 294° |
| 2026-05-07 17:15 | 39.76274 | -1.11413 | 28964 ft | 373 kts | 294° |
| 2026-05-07 17:16 | 39.78817 | -1.17296 | 28964 ft | 373 kts | 294° |
| 2026-05-07 17:16 | 39.81363 | -1.23183 | 28975 ft | 374 kts | 294° |
| 2026-05-07 17:17 | 39.83940 | -1.29072 | 28967 ft | 375 kts | 294° |
| 2026-05-07 17:17 | 39.86517 | -1.34969 | 28976 ft | 375 kts | 294° |
| 2026-05-07 17:18 | 39.89094 | -1.40881 | 28975 ft | 376 kts | 294° |
| 2026-05-07 17:18 | 39.91666 | -1.46816 | 28972 ft | 376 kts | 294° |
| 2026-05-07 17:19 | 39.94218 | -1.52748 | 28972 ft | 375 kts | 294° |
| 2026-05-07 17:19 | 39.96764 | -1.58679 | 28989 ft | 375 kts | 294° |
| 2026-05-07 17:20 | 39.99311 | -1.64620 | 28986 ft | 375 kts | 294° |
| 2026-05-07 17:20 | 40.01857 | -1.70568 | 28977 ft | 376 kts | 294° |
| 2026-05-07 17:21 | 40.04405 | -1.76536 | 28977 ft | 376 kts | 294° |
| 2026-05-07 17:21 | 40.06950 | -1.82505 | 28966 ft | 377 kts | 294° |
| 2026-05-07 17:22 | 40.09495 | -1.88491 | 28736 ft | 378 kts | 294° |
| 2026-05-07 17:22 | 40.10763 | -1.91471 | 28490 ft | 372 kts | 294° |
| 2026-05-07 17:22 | 40.12014 | -1.94417 | 28117 ft | 370 kts | 294° |
| 2026-05-07 17:23 | 40.13255 | -1.97344 | 27762 ft | 367 kts | 294° |
| 2026-05-07 17:23 | 40.14485 | -2.00248 | 27400 ft | 364 kts | 294° |
| 2026-05-07 17:23 | 40.15690 | -2.03096 | 27065 ft | 361 kts | 294° |
| 2026-05-07 17:23 | 40.16899 | -2.05958 | 26712 ft | 358 kts | 294° |
| 2026-05-07 17:24 | 40.18096 | -2.08796 | 26352 ft | 356 kts | 295° |
| 2026-05-07 17:24 | 40.19287 | -2.11622 | 25990 ft | 354 kts | 295° |
| 2026-05-07 17:24 | 40.20468 | -2.14428 | 25620 ft | 352 kts | 295° |
| 2026-05-07 17:24 | 40.21644 | -2.17224 | 25259 ft | 350 kts | 295° |
| 2026-05-07 17:25 | 40.22811 | -2.20002 | 24902 ft | 347 kts | 295° |
| 2026-05-07 17:25 | 40.23972 | -2.22769 | 24544 ft | 345 kts | 295° |
| 2026-05-07 17:25 | 40.25120 | -2.25505 | 24193 ft | 343 kts | 295° |
| 2026-05-07 17:25 | 40.26266 | -2.28241 | 23835 ft | 341 kts | 296° |
| 2026-05-07 17:26 | 40.27399 | -2.30949 | 23488 ft | 339 kts | 296° |
| 2026-05-07 17:26 | 40.28527 | -2.33645 | 23136 ft | 337 kts | 296° |
| 2026-05-07 17:26 | 40.29648 | -2.36329 | 22782 ft | 335 kts | 296° |
| 2026-05-07 17:26 | 40.30762 | -2.38997 | 22432 ft | 333 kts | 296° |
| 2026-05-07 17:27 | 40.31870 | -2.41653 | 22088 ft | 331 kts | 296° |
| 2026-05-07 17:27 | 40.32975 | -2.44305 | 21741 ft | 330 kts | 295° |
| 2026-05-07 17:27 | 40.34074 | -2.46944 | 21392 ft | 328 kts | 295° |
| 2026-05-07 17:27 | 40.35163 | -2.49559 | 21051 ft | 326 kts | 295° |
| 2026-05-07 17:28 | 40.36251 | -2.52176 | 20710 ft | 324 kts | 296° |
| 2026-05-07 17:28 | 40.37468 | -2.54656 | 20348 ft | 327 kts | 311° |
| 2026-05-07 17:28 | 40.39233 | -2.56538 | 20063 ft | 326 kts | 321° |
| 2026-05-07 17:28 | 40.41085 | -2.58281 | 19718 ft | 329 kts | 322° |
| 2026-05-07 17:29 | 40.42951 | -2.60020 | 19374 ft | 330 kts | 322° |
| 2026-05-07 17:29 | 40.44652 | -2.61976 | 19154 ft | 320 kts | 307° |
| 2026-05-07 17:29 | 40.46055 | -2.64209 | 18914 ft | 316 kts | 306° |
| 2026-05-07 17:29 | 40.47433 | -2.66455 | 18650 ft | 316 kts | 306° |
| 2026-05-07 17:30 | 40.48815 | -2.68713 | 18331 ft | 318 kts | 306° |
| 2026-05-07 17:30 | 40.49487 | -2.69809 | 18173 ft | 318 kts | 306° |
| 2026-05-07 17:30 | 40.50702 | -2.71784 | 17892 ft | 318 kts | 306° |
| 2026-05-07 17:30 | 40.52095 | -2.74039 | 17558 ft | 317 kts | 306° |
| 2026-05-07 17:31 | 40.53482 | -2.76278 | 17227 ft | 315 kts | 306° |
| 2026-05-07 17:31 | 40.54862 | -2.78504 | 16901 ft | 313 kts | 306° |
| 2026-05-07 17:31 | 40.56235 | -2.80715 | 16581 ft | 311 kts | 306° |
| 2026-05-07 17:31 | 40.57601 | -2.82917 | 16255 ft | 309 kts | 306° |
| 2026-05-07 17:32 | 40.58957 | -2.85101 | 15932 ft | 308 kts | 307° |
| 2026-05-07 17:32 | 40.60301 | -2.87269 | 15614 ft | 306 kts | 307° |
| 2026-05-07 17:32 | 40.61643 | -2.89434 | 15291 ft | 304 kts | 307° |
| 2026-05-07 17:32 | 40.62530 | -2.90867 | 15079 ft | 304 kts | 307° |
| 2026-05-07 17:33 | 40.64310 | -2.93743 | 14649 ft | 301 kts | 307° |
| 2026-05-07 17:33 | 40.65631 | -2.95879 | 14331 ft | 300 kts | 307° |
| 2026-05-07 17:33 | 40.66941 | -2.97998 | 14020 ft | 298 kts | 307° |
| 2026-05-07 17:33 | 40.68249 | -3.00115 | 13703 ft | 296 kts | 307° |
| 2026-05-07 17:34 | 40.69547 | -3.02218 | 13392 ft | 295 kts | 307° |
| 2026-05-07 17:34 | 40.70825 | -3.04289 | 13082 ft | 293 kts | 307° |
| 2026-05-07 17:34 | 40.72109 | -3.06372 | 12769 ft | 292 kts | 307° |
| 2026-05-07 17:34 | 40.73386 | -3.08445 | 12469 ft | 291 kts | 307° |
| 2026-05-07 17:35 | 40.74658 | -3.10510 | 12153 ft | 290 kts | 307° |
| 2026-05-07 17:35 | 40.75924 | -3.12568 | 11846 ft | 288 kts | 307° |
| 2026-05-07 17:35 | 40.77184 | -3.14617 | 11533 ft | 287 kts | 307° |
| 2026-05-07 17:35 | 40.78438 | -3.16658 | 11222 ft | 286 kts | 307° |
| 2026-05-07 17:36 | 40.79687 | -3.18692 | 10907 ft | 285 kts | 307° |
| 2026-05-07 17:36 | 40.80932 | -3.20720 | 10605 ft | 284 kts | 308° |
| 2026-05-07 17:36 | 40.82174 | -3.22747 | 10291 ft | 285 kts | 308° |
| 2026-05-07 17:36 | 40.83421 | -3.24781 | 10090 ft | 282 kts | 308° |
| 2026-05-07 17:37 | 40.84651 | -3.26791 | 9831 ft | 283 kts | 308° |
| 2026-05-07 17:37 | 40.85892 | -3.28820 | 9540 ft | 284 kts | 308° |
| 2026-05-07 17:37 | 40.87131 | -3.30843 | 9232 ft | 283 kts | 308° |
| 2026-05-07 17:37 | 40.88348 | -3.32835 | 9119 ft | 275 kts | 308° |
| 2026-05-07 17:38 | 40.89537 | -3.34781 | 8963 ft | 268 kts | 308° |
| 2026-05-07 17:38 | 40.90693 | -3.36674 | 8826 ft | 262 kts | 308° |
| 2026-05-07 17:38 | 40.91582 | -3.38716 | 8618 ft | 256 kts | 283° |
| 2026-05-07 17:38 | 40.91935 | -3.40998 | 8427 ft | 253 kts | 279° |
| 2026-05-07 17:39 | 40.92286 | -3.43291 | 8176 ft | 257 kts | 279° |
| 2026-05-07 17:39 | 40.92502 | -3.44863 | 8021 ft | 256 kts | 273° |
| 2026-05-07 17:39 | 40.92356 | -3.47154 | 7935 ft | 248 kts | 256° |
| 2026-05-07 17:39 | 40.92038 | -3.49376 | 7818 ft | 249 kts | 256° |
| 2026-05-07 17:40 | 40.91416 | -3.51471 | 7489 ft | 245 kts | 228° |
| 2026-05-07 17:40 | 40.90146 | -3.52932 | 7222 ft | 241 kts | 211° |
| 2026-05-07 17:40 | 40.88722 | -3.54096 | 7050 ft | 239 kts | 208° |
| 2026-05-07 17:40 | 40.87329 | -3.55198 | 6988 ft | 229 kts | 208° |
| 2026-05-07 17:41 | 40.86000 | -3.56261 | 6981 ft | 219 kts | 208° |
| 2026-05-07 17:41 | 40.84699 | -3.57297 | 6991 ft | 217 kts | 205° |
| 2026-05-07 17:41 | 40.83254 | -3.57723 | 7000 ft | 209 kts | 174° |
| 2026-05-07 17:41 | 40.81837 | -3.57636 | 6996 ft | 199 kts | 178° |
| 2026-05-07 17:42 | 40.80494 | -3.57660 | 6991 ft | 188 kts | 179° |
| 2026-05-07 17:42 | 40.79210 | -3.57672 | 7013 ft | 187 kts | 178° |
| 2026-05-07 17:42 | 40.77893 | -3.57671 | 6937 ft | 193 kts | 178° |
| 2026-05-07 17:42 | 40.76531 | -3.57664 | 6699 ft | 197 kts | 178° |
| 2026-05-07 17:43 | 40.75168 | -3.57655 | 6434 ft | 194 kts | 178° |
| 2026-05-07 17:43 | 40.73832 | -3.57646 | 6180 ft | 189 kts | 178° |
| 2026-05-07 17:43 | 40.72535 | -3.57636 | 5931 ft | 184 kts | 177° |
| 2026-05-07 17:43 | 40.71256 | -3.57626 | 5688 ft | 184 kts | 177° |
| 2026-05-07 17:44 | 40.69991 | -3.57617 | 5442 ft | 177 kts | 176° |
| 2026-05-07 17:44 | 40.68787 | -3.57607 | 5222 ft | 171 kts | 176° |
| 2026-05-07 17:44 | 40.67599 | -3.57596 | 5002 ft | 170 kts | 177° |
| 2026-05-07 17:44 | 40.66452 | -3.57588 | 4772 ft | 160 kts | 177° |
| 2026-05-07 17:45 | 40.65365 | -3.57580 | 4561 ft | 154 kts | 177° |
| 2026-05-07 17:45 | 40.64290 | -3.57570 | 4366 ft | 155 kts | 178° |
| 2026-05-07 17:45 | 40.63200 | -3.57562 | 4158 ft | 157 kts | 178° |
| 2026-05-07 17:45 | 40.62103 | -3.57554 | 3946 ft | 157 kts | 178° |
| 2026-05-07 17:46 | 40.61014 | -3.57545 | 3744 ft | 155 kts | 177° |
| 2026-05-07 17:46 | 40.59965 | -3.57537 | 3533 ft | 145 kts | 176° |
| 2026-05-07 17:46 | 40.58986 | -3.57530 | 3354 ft | 138 kts | 178° |
| 2026-05-07 17:46 | 40.58002 | -3.57521 | 3164 ft | 147 kts | 178° |
| 2026-05-07 17:47 | 40.56958 | -3.57513 | 2967 ft | 151 kts | 177° |
| 2026-05-07 17:47 | 40.55901 | -3.57504 | 2766 ft | 152 kts | 179° |
| 2026-05-07 17:47 | 40.54846 | -3.57493 | 2540 ft | 153 kts | 180° |
| 2026-05-07 17:47 | 40.53779 | -3.57487 | 2356 ft | 154 kts | 180° |
| 2026-05-07 17:48 | 40.52703 | -3.57481 | 2149 ft | 155 kts | 180° |
| 2026-05-07 17:48 | 40.51629 | -3.57469 | 2001 ft | 149 kts | 180° |
| 2026-05-07 17:48 | 40.50693 | -3.57463 | 1994 ft | 118 kts | 180° |
| 2026-05-07 17:48 | 40.50033 | -3.57458 | 1986 ft | 65 kts | 180° |
| 2026-05-07 17:49 | 40.49641 | -3.57455 | 1984 ft | 50 kts | 180° |
| 2026-05-07 17:49 | 40.49324 | -3.57455 | 1984 ft | 38 kts | 180° |
| 2026-05-07 17:49 | 40.49207 | -3.57512 | 1985 ft | 5 kts | 240° |
| 2026-05-07 17:49 | 40.49200 | -3.57532 | 1986 ft | 2 kts | 245° |
| 2026-05-07 17:50 | 40.49189 | -3.57562 | 1988 ft | 6 kts | 245° |
| 2026-05-07 17:50 | 40.49169 | -3.57607 | 1990 ft | 6 kts | 224° |
| 2026-05-07 17:50 | 40.49161 | -3.57614 | 1988 ft | 0 kts | 211° |
| 2026-05-07 17:50 | 40.49115 | -3.57619 | 1988 ft | 10 kts | 180° |
| 2026-05-07 17:51 | 40.49046 | -3.57619 | 1989 ft | 10 kts | 180° |
| 2026-05-07 17:51 | 40.48978 | -3.57618 | 1989 ft | 10 kts | 178° |
| 2026-05-07 17:51 | 40.48902 | -3.57620 | 1989 ft | 12 kts | 190° |
| 2026-05-07 17:51 | 40.48862 | -3.57722 | 1991 ft | 15 kts | 265° |
| 2026-05-07 17:52 | 40.48857 | -3.57865 | 1995 ft | 16 kts | 268° |
| 2026-05-07 17:52 | 40.48853 | -3.58004 | 2000 ft | 15 kts | 251° |
| 2026-05-07 17:52 | 40.48769 | -3.58051 | 2001 ft | 14 kts | 179° |
| 2026-05-07 17:52 | 40.48673 | -3.58050 | 2000 ft | 14 kts | 179° |
| 2026-05-07 17:53 | 40.48585 | -3.58034 | 2001 ft | 12 kts | 158° |
| 2026-05-07 17:53 | 40.48497 | -3.57969 | 1997 ft | 19 kts | 148° |
| 2026-05-07 17:53 | 40.48357 | -3.57852 | 1990 ft | 25 kts | 145° |
| 2026-05-07 17:53 | 40.48222 | -3.57718 | 1995 ft | 23 kts | 142° |
| 2026-05-07 17:54 | 40.48096 | -3.57590 | 1998 ft | 23 kts | 142° |
| 2026-05-07 17:54 | 40.47976 | -3.57469 | 2002 ft | 15 kts | 142° |
| 2026-05-07 17:54 | 40.47895 | -3.57386 | 2004 ft | 14 kts | 142° |
| 2026-05-07 17:54 | 40.47814 | -3.57303 | 2000 ft | 15 kts | 142° |
| 2026-05-07 17:55 | 40.47727 | -3.57215 | 1999 ft | 16 kts | 142° |
| 2026-05-07 17:55 | 40.47638 | -3.57125 | 1995 ft | 17 kts | 142° |
| 2026-05-07 17:55 | 40.47542 | -3.57027 | 1992 ft | 18 kts | 142° |
| 2026-05-07 17:55 | 40.47442 | -3.56926 | 1989 ft | 18 kts | 142° |
| 2026-05-07 17:56 | 40.47339 | -3.56853 | 1987 ft | 17 kts | 201° |
| 2026-05-07 17:56 | 40.47331 | -3.56933 | 1986 ft | 8 kts | 312° |
| 2026-05-07 17:56 | 40.47371 | -3.56977 | 1988 ft | 8 kts | 321° |
| 2026-05-07 17:56 | 40.47377 | -3.57004 | 1989 ft | 2 kts | 242° |
| 2026-05-07 17:57 | 40.47359 | -3.57028 | 1988 ft | 5 kts | 228° |
| 2026-05-07 17:57 | 40.47346 | -3.57048 | 1989 ft | 4 kts | 230° |
| 2026-05-07 17:57 | 40.47343 | -3.57054 | 1989 ft | 0 kts | 230° |